x

8557380 - Lewes, De (lwsd1) Weather Station

11:54pm - Fri 23rd Feb 2018 All times are EST. -5 hours from GMT.

  • Wind
    7mph, 9mph gusts
  • Sea Temp 43°f
  • Air Temp 47°f
  • Sea Pressure 1024.6mb
  • 8557380 - Lewes, De
  • 8557380 - Lewes, De

More Historic Weather Station data

Upgrade to MSW Pro to gain access to the past 30 days of data for over 8000 Wavebouys and Weather Stations around the globe.

Join

Comparision Forecast

View Surf forecast
   
Fri 02/23 11:54pm 7 9 mph 1024.6mb 43f 47f
11:48pm 7 9 mph 1024.6mb 42f 47f
11:42pm 6 8 mph 1024.6mb 42f 47f
11:36pm 7 10 mph 1024.7mb 42f 47f
11:30pm 7 10 mph 1024.6mb 42f 47f
11:24pm 6 8 mph 1024.6mb 42f 47f
11:18pm 6 7 mph 1024.7mb 42f 47f
11:12pm 5 6 mph 1024.7mb 42f 46f
11:06pm 3 5 mph 1024.7mb 42f 46f
11:00pm 3 5 mph 1024.9mb 42f 46f
10:54pm 2 5 mph 1025mb 42f 46f
10:48pm 2 5 mph 1025mb 42f 45f
10:42pm 1 2 mph 1024.9mb 42f 45f
10:36pm 3 6 mph 1024.9mb 42f 45f
10:30pm 2 5 mph 1025mb 43f 45f
10:24pm 3 5 mph 1025mb 43f 44f
10:18pm 3 5 mph 1025.2mb 43f 44f
10:12pm 2 3 mph 1025.2mb 43f 44f
10:06pm 1 2 mph 1025.5mb 42f 44f
10:00pm 1 3 mph 1025.3mb 43f 44f
9:54pm 2 3 mph 1025.4mb 43f 44f
9:48pm 2 3 mph 1025.5mb 43f 44f
9:42pm 2 3 mph 1025.8mb 43f 44f
9:36pm 2 2 mph 1025.9mb 43f 44f
9:30pm 1 2 mph 1025.9mb 43f 44f
9:24pm  -  1 mph 1026mb 43f 44f
9:18pm 1 2 mph 1026.2mb 43f 43f
9:12pm  -  1 mph 1026.2mb 43f 43f
9:06pm  -  1 mph 1026.3mb 43f 43f
9:00pm 1 2 mph 1026.4mb 43f 43f
8:54pm  -  1 mph 1026.2mb 43f 43f
8:48pm 1 2 mph 1026.1mb 43f 43f
8:42pm 2 2 mph 1026.2mb 43f 43f
8:36pm 1 2 mph 1026.4mb 43f 43f
8:30pm 1 2 mph 1026.4mb 43f 43f
8:24pm 2 3 mph 1026.4mb 43f 43f
8:18pm 3 5 mph 1026.3mb 43f 43f
8:12pm 3 5 mph 1026.4mb 43f 43f
8:06pm 2 3 mph 1026.5mb 43f 43f
8:00pm 2 2 mph 1026.5mb 43f 43f
7:54pm 2 2 mph 1026.5mb 43f 42f
7:48pm 1 2 mph 1026.6mb 43f 42f
7:42pm  -  1 mph 1026.7mb 43f 42f
7:36pm 1 2 mph 1026.6mb 43f 42f
7:30pm  -  1 mph 1026.8mb 43f 42f
7:24pm 1 2 mph 1026.9mb 43f 42f
7:18pm 1 2 mph 1027.1mb 43f 42f
7:12pm 2 3 mph 1027.2mb 43f 42f
7:06pm 3 3 mph 1027.2mb 43f 42f
7:00pm 3 3 mph 1027.3mb 43f 42f
6:54pm 3 3 mph 1027.3mb 43f 42f
6:48pm 3 3 mph 1027.3mb 43f 42f
6:42pm 2 3 mph 1027.3mb 43f 42f
6:36pm 2 3 mph 1027.1mb 43f 42f
6:30pm 2 2 mph 1027.1mb 43f 42f
6:24pm 1 2 mph 1027.2mb 43f 42f
6:18pm 2 2 mph 1027.1mb 43f 42f
6:12pm 2 3 mph 1027.2mb 43f 42f
6:06pm 5 5 mph 1027.1mb 43f 42f
6:00pm 3 3 mph 1027.3mb 43f 42f
5:54pm 3 3 mph 1027.5mb 43f 42f
5:48pm 2 3 mph 1027.7mb - -
5:42pm 2 3 mph 1027.8mb 43f 42f
5:36pm 3 6 mph 1028mb 43f 42f
5:30pm 6 7 mph 1028.1mb 43f 42f
5:24pm 6 7 mph 1028mb 43f 42f
5:18pm 2 3 mph 1027.5mb 43f 42f
5:12pm 5 6 mph 1027.3mb 43f 42f
5:06pm 3 5 mph 1027.3mb 43f 42f
5:00pm 5 7 mph 1027.3mb 43f 42f
4:54pm 3 5 mph 1027.4mb 43f 42f
4:48pm 6 8 mph 1027.5mb 43f 42f
4:42pm 6 8 mph 1027.7mb 43f 42f
4:36pm 6 7 mph 1027.8mb 43f 42f
4:30pm 7 9 mph 1027.9mb 43f 42f
4:24pm 6 8 mph 1028mb 43f 42f
4:18pm 8 10 mph 1028.1mb 43f 43f
4:12pm 7 8 mph 1028.3mb 43f 43f
4:06pm 7 8 mph 1028.6mb 43f 43f
4:00pm 5 6 mph 1028.8mb 43f 43f
3:54pm 6 8 mph 1028.8mb 43f 43f
3:48pm 6 7 mph 1028.7mb 43f 43f
3:42pm 6 7 mph 1028.9mb 43f 43f
3:36pm 6 7 mph 1028.9mb 43f 43f
3:30pm 5 5 mph 1029.2mb 43f 43f
3:24pm 5 6 mph 1029.3mb 43f 43f
3:18pm 5 6 mph 1029.4mb 43f 43f
3:12pm 6 7 mph 1029.3mb 43f 43f
3:06pm 3 5 mph 1029.5mb 43f 43f
3:00pm 3 3 mph 1029.7mb 43f 43f
2:54pm 3 5 mph 1029.9mb 43f 43f
2:48pm 3 5 mph 1030mb 43f 43f
2:42pm 6 7 mph 1030mb 43f 43f
2:36pm 6 6 mph 1030.1mb 43f 43f
2:30pm 6 7 mph 1030.1mb 43f 43f
2:24pm 6 6 mph 1030.2mb 43f 43f
2:18pm 7 8 mph 1030.2mb 43f 43f
2:12pm 8 9 mph 1030.2mb 43f 42f
2:06pm 7 8 mph 1030.5mb 43f 42f
2:00pm 7 8 mph 1030.7mb 43f 42f
1:54pm 9 10 mph 1030.6mb 43f 42f
1:48pm 9 11 mph 1030.6mb 43f 42f
1:42pm 10 11 mph 1030.7mb 43f 42f
1:36pm 9 11 mph 1030.8mb 43f 42f
1:30pm 10 11 mph 1030.9mb 43f 42f
1:24pm 9 10 mph 1031mb 43f 42f
1:18pm 9 10 mph 1031.1mb 43f 42f
1:12pm 9 10 mph 1031.1mb 43f 42f
1:06pm 9 10 mph 1031.3mb 43f 42f
1:00pm 10 11 mph 1031.3mb 43f 42f
12:54pm 8 10 mph 1031.7mb 43f 42f
12:48pm 8 10 mph 1031.7mb 43f 42f
12:42pm 9 11 mph 1031.8mb 43f 42f
12:36pm 10 11 mph 1031.9mb 43f 42f
12:30pm 9 11 mph 1032mb 43f 42f
12:24pm 10 11 mph 1032mb 43f 42f
12:18pm 10 14 mph 1032.2mb 43f 42f
12:12pm 9 11 mph 1032.3mb 43f 42f
12:06pm 10 15 mph 1032.4mb 43f 42f
12:00pm 13 14 mph 1032.5mb 43f 42f
11:54am 6 14 mph 1032.6mb 43f 42f
11:48am 15 18 mph 1032.8mb 43f 42f
11:42am 15 17 mph 1032.8mb 43f 42f
11:36am 14 17 mph 1032.9mb 43f 42f
11:30am 14 16 mph 1033mb 43f 42f
11:24am 15 17 mph 1033.2mb 43f 42f
11:18am 13 15 mph 1033.5mb 43f 42f
11:12am 14 16 mph 1033.6mb 43f 42f
11:06am 15 18 mph 1033.6mb 43f 42f
11:00am 16 18 mph 1033.7mb 43f 42f
10:54am 14 17 mph 1033.9mb 43f 42f
10:48am 16 18 mph 1034mb 43f 42f
10:42am 15 18 mph 1034.1mb 43f 42f
10:36am 16 18 mph 1034.2mb 43f 42f
10:30am 16 18 mph 1034.2mb 43f 42f
10:24am 16 18 mph 1034.3mb 43f 42f
10:18am 14 17 mph 1034.5mb 43f 42f
10:12am 15 17 mph 1034.7mb 43f 42f
10:06am 14 16 mph 1034.8mb 43f 42f
10:00am 14 16 mph 1035mb 43f 42f
9:54am 11 14 mph 1035.3mb 43f 42f
9:48am 13 15 mph 1035.2mb 43f 41f
9:42am 15 16 mph 1034.7mb 43f 41f
9:36am 13 14 mph 1034.9mb 43f 41f
9:30am 13 15 mph 1034.9mb 43f 41f
9:24am 14 16 mph 1034.9mb 43f 41f
9:18am 14 15 mph 1034.9mb 43f 41f
9:12am 13 15 mph 1035.1mb 43f 41f
9:06am 11 14 mph 1035.1mb 43f 42f
9:00am 14 15 mph 1035.1mb 43f 41f
8:54am 13 14 mph 1035.1mb 43f 41f
8:48am 10 14 mph 1035.1mb 43f 41f
8:42am 13 15 mph 1035.1mb 43f 41f
8:36am 11 14 mph 1035.1mb 43f 41f
8:30am 11 14 mph 1035mb 43f 41f
8:24am 14 16 mph 1035mb 43f 41f
8:18am 14 16 mph 1035.2mb - -
8:12am 15 17 mph 1035.3mb 43f 41f
8:06am 15 18 mph 1035.2mb 43f 41f
8:00am 16 20 mph 1035.2mb 43f 41f
7:48am 16 20 mph 1035.1mb 43f 41f
7:42am 18 22 mph 1035mb 43f 41f
7:36am 18 21 mph 1035.1mb 43f 42f
7:30am 17 20 mph 1035.3mb 43f 42f
7:24am 16 18 mph 1035.2mb 43f 42f
7:18am 17 21 mph 1034.9mb 43f 42f
7:12am 17 20 mph 1034.7mb 43f 42f
7:06am 18 22 mph 1035mb 43f 42f
7:00am 20 23 mph 1034.9mb 43f 42f
6:54am 17 20 mph 1035.1mb 43f 42f
6:48am 17 20 mph 1035mb 43f 42f
6:42am 16 21 mph 1035.2mb 43f 42f
6:36am 17 22 mph 1035.1mb 43f 42f
6:30am 17 22 mph 1034.7mb 43f 42f
6:24am 20 23 mph 1034.8mb 43f 41f
6:18am 17 21 mph 1034.7mb 43f 41f
6:12am 16 20 mph 1034.8mb 43f 41f
6:06am 18 22 mph 1034.7mb 43f 41f
6:00am 18 22 mph 1034.8mb 43f 41f
5:54am 17 20 mph 1035mb 43f 41f
5:48am 17 20 mph 1034.8mb 43f 41f
5:42am 20 22 mph 1034.7mb 43f 41f
5:36am 18 22 mph 1035.2mb 43f 41f
5:30am 21 24 mph 1035.2mb 43f 41f
5:24am 20 23 mph 1035.2mb 43f 41f
5:18am 18 22 mph 1035.2mb 43f 41f
5:12am 18 22 mph 1035.1mb 43f 41f
5:06am 22 25 mph 1035.3mb 43f 41f
5:00am 21 25 mph 1035.5mb 43f 41f
4:54am 18 22 mph 1035.6mb 43f 41f
4:48am 18 22 mph 1035.6mb 43f 41f
4:42am 20 22 mph 1035.7mb 43f 41f
4:36am 18 23 mph 1035.8mb 43f 41f
4:30am 16 18 mph 1035.9mb 43f 41f
4:24am 20 23 mph 1035.6mb 43f 41f
4:18am 17 22 mph 1035.6mb 43f 41f
4:12am 17 21 mph 1035.5mb 43f 41f
4:06am 18 22 mph 1035.2mb 44f 41f
4:00am 17 22 mph 1035.2mb 44f 41f
3:54am 18 23 mph 1034.9mb 44f 41f
3:48am 21 24 mph 1034.7mb 44f 41f
3:42am 22 26 mph 1034.8mb 44f 41f
3:36am 22 24 mph 1034.8mb 44f 41f
3:30am 21 25 mph 1035.1mb 44f 41f
3:24am 20 23 mph 1035.4mb 44f 40f
3:18am 21 23 mph - - -
3:12am 22 24 mph 1035.6mb 43f 41f
3:06am 21 23 mph 1035.5mb 43f 41f
3:00am 23 25 mph 1035.1mb 43f 41f
2:54am 23 26 mph 1035.2mb 43f 41f
2:48am 20 23 mph 1035.2mb 43f 41f
2:42am 23 25 mph 1035.3mb 43f 41f
2:36am 22 25 mph 1035.7mb 43f 41f
2:30am 21 25 mph 1035.9mb 43f 41f
2:24am 22 28 mph 1035.7mb 44f 41f
2:18am 23 28 mph 1035.7mb 44f 41f
2:12am 24 28 mph 1035.6mb 44f 40f
2:06am 21 26 mph 1035.6mb 44f 41f
2:00am 25 29 mph 1035.5mb 44f 41f
1:48am 22 26 mph 1035.3mb 44f 41f
1:42am 22 25 mph 1035.5mb 44f 42f
1:36am 21 23 mph 1035.7mb 44f 42f
1:30am 21 24 mph 1035.8mb 44f 42f
1:24am 21 24 mph 1035.7mb 44f 42f
1:18am 18 23 mph 1035.9mb 44f 42f
1:12am 20 22 mph 1036mb 44f 42f
1:06am 21 24 mph 1035.9mb 44f 42f
1:00am 21 24 mph 1035.8mb 44f 42f
12:54am 20 23 mph 1036.1mb 44f 42f
12:48am 18 22 mph 1036.1mb 44f 42f
12:42am 20 22 mph 1036mb 44f 42f
12:36am 18 21 mph 1036mb 44f 42f
12:30am 18 21 mph 1036mb 44f 42f
12:24am 17 22 mph 1036mb 44f 42f
12:18am 18 22 mph 1035.9mb 44f 42f
12:12am 18 22 mph 1035.9mb 44f 42f
12:06am 18 22 mph 1036.2mb 44f 41f
12:00am 20 23 mph 1036.1mb 44f 41f
Thu 02/22 11:54pm 20 22 mph 1036.1mb 44f 41f
11:48pm 21 22 mph 1035.9mb 44f 41f
11:42pm 18 21 mph 1036.1mb 44f 42f
11:36pm 18 22 mph 1036.1mb 44f 42f
11:30pm 17 21 mph 1036.1mb 44f 42f
11:24pm 17 21 mph 1036mb 44f 42f
11:18pm 17 21 mph 1035.8mb 44f 42f
11:12pm 17 21 mph 1035.9mb 44f 42f
11:06pm 17 20 mph 1035.8mb 44f 42f
11:00pm 20 23 mph 1035.8mb 44f 42f
10:54pm 22 24 mph 1036mb 44f 41f
10:48pm 20 23 mph 1036mb 44f 41f
10:42pm 21 25 mph 1035.7mb 44f 41f
10:36pm 20 22 mph 1035.7mb 44f 41f
10:30pm 18 22 mph 1035.6mb 44f 41f
10:24pm 21 24 mph 1035.7mb 44f 41f
10:18pm 21 24 mph 1035.8mb 44f 41f
10:12pm 23 26 mph 1035.9mb 44f 41f
10:06pm 24 28 mph 1035.6mb 44f 40f
10:00pm 23 29 mph 1035.5mb 44f 40f
9:54pm 24 28 mph 1035.5mb 44f 41f
9:48pm 24 30 mph 1035.4mb 44f 41f
9:42pm 24 29 mph 1035.4mb 44f 41f
9:36pm 24 28 mph 1035.3mb 44f 41f
9:30pm 25 30 mph 1035.2mb 44f 41f
9:24pm 25 30 mph 1035.2mb 44f 40f
9:18pm 28 33 mph 1035.3mb 44f 40f
9:12pm 28 32 mph 1035.3mb 44f 40f
9:06pm 28 33 mph 1035.3mb 44f 40f
9:00pm 24 28 mph 1035mb 44f 40f
8:54pm 28 33 mph 1034.6mb 44f 40f
8:48pm 25 31 mph 1034.9mb 44f 40f
8:42pm 23 28 mph 1035mb 45f 40f
8:36pm 26 33 mph 1035mb 45f 40f
8:30pm 25 30 mph 1035mb 45f 40f
8:24pm 28 33 mph 1035.2mb 45f 40f
8:18pm 26 31 mph 1035.1mb 45f 40f
8:12pm 25 32 mph 1034.9mb 45f 40f
8:06pm 29 34 mph 1035.1mb 45f 40f
8:00pm 29 34 mph 1035.4mb 45f 40f
7:54pm 28 33 mph 1035.6mb 45f 40f
7:48pm 28 32 mph 1035.4mb 45f 40f
7:42pm 28 33 mph 1035.3mb 45f 41f
7:36pm 29 32 mph 1035.4mb 45f 41f
7:30pm 30 34 mph 1035.6mb 46f 41f
7:24pm 32 39 mph 1035.4mb 45f 41f
7:18pm 11 29 mph 1035.4mb 45f 42f
7:12pm 25 31 mph 1035.5mb 45f 42f
7:06pm 26 32 mph 1035.3mb 46f 42f
7:00pm 26 30 mph 1035.3mb 46f 42f
6:54pm 29 33 mph 1035.2mb 46f 42f
6:48pm 31 37 mph 1035.4mb 46f 42f
6:42pm 28 36 mph 1035.1mb 46f 43f
6:36pm 25 30 mph 1035mb 46f 43f
6:30pm 25 30 mph 1034.9mb 46f 43f
6:24pm 26 31 mph 1034.8mb 47f 43f
6:18pm 25 31 mph 1034.7mb 46f 43f
6:12pm 20 24 mph 1034.9mb 47f 43f
6:06pm 20 23 mph 1034.9mb 46f 43f
6:00pm 17 20 mph 1034.7mb 46f 43f
5:54pm 17 21 mph 1034.5mb 46f 43f
5:48pm 20 22 mph 1034.4mb 46f 43f
5:42pm 18 21 mph 1034.3mb 46f 43f
5:36pm 21 22 mph 1034.1mb 46f 43f
5:30pm 20 23 mph 1034mb 47f 43f
5:24pm 20 22 mph 1033.9mb 47f 43f
5:18pm 17 20 mph 1033.8mb 47f 43f
5:12pm 20 22 mph 1033.5mb 46f 43f
5:06pm 20 23 mph 1033.3mb 46f 43f
5:00pm 20 23 mph 1033.1mb 46f 43f
4:54pm 22 24 mph 1033.2mb 46f 43f
4:48pm 21 24 mph 1033.1mb 46f 43f
4:42pm 18 22 mph 1033mb 46f 43f
4:36pm 22 25 mph 1032.9mb 46f 43f
4:30pm 21 24 mph 1032.7mb 46f 43f
4:24pm 20 24 mph 1032.4mb 46f 43f
4:18pm 22 28 mph 1032.1mb 46f 43f
4:12pm 21 24 mph 1031.8mb 46f 43f
4:06pm 23 28 mph 1031.6mb 46f 43f
4:00pm 23 28 mph 1031.4mb 46f 43f
3:54pm 2 13 mph 1031.3mb 46f 44f
3:48pm 21 24 mph 1031.1mb 46f 43f
3:42pm 20 24 mph 1031mb 46f 43f
3:36pm 21 23 mph 1031.2mb 46f 43f
3:30pm 22 25 mph 1031.1mb 46f 43f
3:24pm 24 28 mph 1031.3mb 46f 43f
3:18pm 24 28 mph 1031.1mb 46f 43f
3:12pm 22 26 mph 1031.1mb 46f 43f
3:06pm 17 25 mph 1031.1mb 46f 43f
3:00pm 22 24 mph 1030.9mb 46f 43f
2:54pm 17 22 mph 1030.9mb 46f 43f
2:48pm 25 29 mph 1030.6mb 46f 43f
2:42pm 21 26 mph 1030.5mb 46f 43f
2:36pm 21 23 mph 1030.7mb 46f 43f
2:30pm 22 26 mph 1030.7mb 46f 43f
2:24pm 23 26 mph 1030.9mb 46f 43f
2:18pm 22 26 mph 1030.8mb 46f 44f
2:12pm 21 25 mph 1030.7mb 46f 44f
2:06pm 24 30 mph 1030.6mb 46f 44f
2:00pm 24 29 mph 1031mb 46f 44f
1:54pm 23 26 mph 1031.1mb 46f 44f
1:48pm 21 25 mph 1031.3mb 46f 44f
1:42pm 22 26 mph 1031.4mb 46f 44f
1:36pm 22 25 mph 1031.4mb 46f 44f
1:30pm 21 26 mph 1031.5mb 46f 44f
1:24pm 20 23 mph 1031.5mb 46f 44f
1:18pm 21 24 mph 1031.4mb 46f 44f
1:12pm 18 22 mph 1031.8mb 46f 44f
1:06pm 20 22 mph 1031.9mb 46f 44f
1:00pm 18 22 mph 1031.7mb 46f 44f
12:54pm 17 22 mph 1031.7mb 46f 44f
12:48pm 16 22 mph 1031.8mb 46f -
12:42pm 18 22 mph 1031.8mb 46f 44f
12:36pm 16 21 mph 1031.9mb 46f 44f
12:30pm 18 24 mph 1032mb 46f 44f
12:24pm 15 22 mph 1032.1mb 46f 44f
12:18pm 17 21 mph 1032.2mb 46f 44f
12:12pm 18 21 mph 1032.2mb 46f 44f
12:06pm 18 23 mph 1032.4mb 46f 44f
12:00pm 11 22 mph 1032.5mb 46f 45f
11:54am 20 22 mph 1032.7mb 46f 44f
11:48am 22 26 mph 1032.6mb 46f -
11:42am 21 25 mph 1032.7mb 46f 44f
11:36am 21 28 mph 1033mb 46f 44f
11:30am 22 28 mph 1032.8mb 46f 45f
11:24am 21 25 mph 1032.8mb 46f 45f
11:18am 23 29 mph 1032.9mb 46f -
11:12am 22 25 mph 1032.8mb 46f 45f
11:06am 22 26 mph 1032.9mb 46f 45f
11:00am 25 30 mph 1032.7mb 46f 45f
10:54am 21 24 mph 1032.9mb 46f 45f
10:48am 24 29 mph 1032.9mb 46f 46f
10:42am 22 28 mph 1032.9mb 46f 46f
10:36am 21 24 mph 1033.1mb 46f 46f
10:30am 22 29 mph 1033mb 46f 46f
10:24am 22 26 mph 1032.9mb 46f 46f
10:18am 22 25 mph 1032.8mb 46f 46f
10:12am 17 21 mph 1033mb 46f 46f
10:06am 18 25 mph 1033mb 46f 46f
10:00am 18 22 mph 1033.1mb 46f 46f
9:54am 16 20 mph 1033.1mb 46f 46f
9:48am 15 22 mph 1033.1mb 46f 46f
9:42am 20 22 mph 1033mb 46f 46f
9:36am 15 21 mph 1033mb 46f 46f
9:30am 15 17 mph 1032.9mb 46f 46f
9:24am 14 17 mph 1032.8mb 46f 46f
9:18am 14 16 mph 1032.7mb 46f 46f
9:12am 16 22 mph 1032.6mb 46f 46f
9:06am 14 16 mph 1032.6mb 46f 46f
9:00am 13 15 mph 1032.7mb 46f 46f
8:54am 14 17 mph 1032.6mb 46f 46f
8:48am 13 15 mph - - -
8:42am 14 17 mph 1032.6mb 46f 46f
8:36am 16 18 mph 1032.6mb 46f 46f
8:30am 15 16 mph 1032.4mb 46f 46f
8:24am 10 16 mph 1032.5mb 46f 47f
8:18am 13 17 mph 1032.4mb 46f -
8:12am 14 16 mph 1032.4mb 46f 47f
8:06am 13 14 mph 1032.4mb 46f 47f
8:00am 11 14 mph 1032.4mb 46f 47f
7:54am 14 17 mph 1032.2mb 46f 47f
7:48am 17 21 mph 1031.9mb 46f 48f
7:42am 17 22 mph 1031.7mb 46f 48f
7:36am 17 25 mph 1031.7mb 46f 49f
7:30am 20 24 mph 1031.6mb 46f 49f
7:24am 21 25 mph 1031.5mb 46f 49f
7:18am 18 23 mph 1031.4mb 46f -
7:12am 16 21 mph 1031.4mb 46f 49f
7:06am 17 21 mph 1031.4mb 46f 49f
7:00am 21 24 mph 1031.2mb 46f 49f
6:54am 17 22 mph 1031.1mb 46f 48f
6:48am 16 18 mph 1031.2mb 45f 48f
6:42am 11 15 mph 1031.4mb 46f 48f
6:36am 13 15 mph 1031.2mb 46f 48f
6:30am 13 15 mph 1031.1mb 46f 48f
6:24am 10 11 mph 1031.2mb 46f 49f
6:18am 11 15 mph 1031.2mb 46f -
6:12am 10 11 mph 1031.2mb 46f 50f
6:06am 10 13 mph 1031.2mb 46f 50f
6:00am 9 11 mph 1031.2mb 46f 50f
5:54am 8 9 mph 1031.2mb 46f 50f
5:48am 11 14 mph 1031.1mb - -
5:42am 9 10 mph 1031.2mb 46f 51f
5:36am 11 13 mph 1031.2mb 46f 51f
5:30am 13 14 mph 1031.1mb 45f 52f
5:24am 10 13 mph 1031.1mb 45f 53f
5:18am 9 14 mph 1031.1mb 46f 52f
5:12am 7 8 mph 1031mb 46f 51f
5:06am 8 10 mph 1030.9mb 46f 52f
5:00am 8 10 mph 1030.9mb 46f 52f
4:54am 7 9 mph 1030.9mb 46f 52f
4:48am 6 9 mph 1030.9mb - -
4:42am 6 10 mph 1030.8mb 46f 52f
4:36am 6 8 mph 1030.7mb 46f 50f
4:30am 5 7 mph 1030.6mb 46f 50f
4:24am 6 9 mph 1030.6mb 46f 51f
4:18am 9 11 mph 1030.4mb 46f 51f
4:12am 9 11 mph 1030.4mb 46f 52f
4:06am 9 13 mph 1030.4mb 46f 53f
4:00am 7 10 mph 1030.4mb 45f 52f
3:54am 8 13 mph 1030.2mb 45f 53f
3:48am 9 13 mph 1030.2mb 45f 51f
3:42am 6 8 mph 1030.1mb 45f 53f
3:36am 6 8 mph 1030mb 45f 53f
3:30am 5 8 mph - - -
3:24am 1 3 mph 1029.8mb 45f 50f
3:18am 1 2 mph 1029.9mb 45f 49f
3:12am 2 3 mph 1029.7mb 45f 49f
3:06am 6 6 mph 1029.8mb 45f 49f
3:00am 5 6 mph 1029.8mb 45f 51f
2:54am 6 7 mph 1029.8mb 45f 52f
2:48am 6 7 mph 1029.7mb 45f 53f
2:42am 9 10 mph 1029.7mb 45f 54f
2:36am 8 9 mph 1029.8mb 45f 54f
2:30am 3 6 mph 1029.7mb 45f 56f
2:24am 2 3 mph 1029.6mb 45f 58f
2:18am 6 7 mph 1029.6mb 45f 58f
2:12am 8 9 mph 1029.5mb 45f 59f
2:06am 9 9 mph 1029.4mb 45f 59f
2:00am 10 13 mph 1029.3mb 45f 64f
1:54am 11 14 mph 1029.3mb 45f 60f
1:48am 6 9 mph - - -
1:42am 7 9 mph 1028.9mb 45f 67f
1:36am 6 7 mph 1029mb 45f 65f
1:30am 6 7 mph 1029mb 45f 65f
1:24am 7 8 mph 1029mb 45f 66f
1:18am 8 9 mph 1029mb - -
1:12am 7 8 mph 1028.9mb 45f 65f
1:06am 7 8 mph 1028.9mb 44f 65f
1:00am 8 9 mph 1028.8mb 45f 67f
12:54am 7 9 mph 1028.8mb 44f 67f
12:48am 7 11 mph 1028.7mb - -
12:42am 8 10 mph 1028.6mb 44f -
12:36am 8 11 mph 1028.4mb 44f -
12:30am 7 9 mph 1028.3mb 44f 68f
12:24am 9 14 mph 1028.2mb 44f 69f
12:18am 9 13 mph 1028.1mb 44f 69f
12:12am 10 16 mph 1028.1mb 44f 69f
12:06am 7 10 mph 1028mb 44f 69f
12:00am 8 13 mph 1028.1mb 44f 69f
Wed 02/21 11:54pm 9 16 mph 1028mb 44f 69f
11:48pm 9 15 mph 1028mb 44f 69f
11:42pm 10 16 mph 1028mb 44f 69f
11:36pm 9 16 mph 1028mb 44f 69f
11:30pm 9 13 mph 1028mb 44f 69f
11:24pm 10 14 mph 1027.9mb 44f 69f
11:18pm 9 15 mph 1027.8mb 44f 69f
11:12pm 10 15 mph 1027.8mb 44f 69f
11:06pm 11 18 mph 1027.7mb 44f 69f
11:00pm 13 20 mph 1027.7mb 44f 68f
10:54pm 10 15 mph 1027.7mb 44f 68f
10:48pm 9 14 mph 1027.7mb 44f 68f
10:42pm 9 14 mph 1027.7mb 44f 68f
10:36pm 9 15 mph 1027.8mb 44f 68f
10:30pm 10 18 mph 1027.8mb 44f 68f
10:24pm 9 14 mph 1027.8mb 44f 68f
10:18pm 8 14 mph 1027.8mb 44f 68f
10:12pm 9 13 mph 1027.8mb 44f 68f
10:06pm 8 14 mph 1027.7mb 44f 68f
10:00pm 8 11 mph 1027.7mb 44f 68f
9:54pm 9 15 mph 1027.6mb 44f 68f
9:48pm 10 16 mph 1027.5mb 44f 69f
9:42pm 9 13 mph 1027.5mb 44f 69f
9:36pm 9 18 mph 1027.4mb 44f 69f
9:30pm 9 14 mph 1027.4mb 44f 69f
9:24pm 8 15 mph 1027.3mb 44f 69f
9:18pm 8 14 mph 1027.3mb 44f 69f
9:12pm 9 14 mph 1027.3mb 44f 69f
9:06pm 8 11 mph 1027.2mb 44f 69f
9:00pm 9 14 mph 1027.2mb 44f 69f
8:54pm 8 13 mph 1027.1mb 44f 69f
8:48pm 8 13 mph 1027.1mb 44f 69f
8:42pm 10 17 mph 1027.2mb 44f 69f
8:36pm 11 16 mph 1027.3mb 44f 69f
8:30pm 9 14 mph 1027.2mb 44f 69f
8:24pm 9 14 mph 1027.1mb 44f 69f
8:18pm 9 14 mph 1027.1mb 44f 69f
8:12pm 11 16 mph 1027.1mb 44f 70f
8:06pm 8 15 mph 1027mb 44f 70f
8:00pm 8 15 mph 1027mb 44f 70f
7:54pm 8 13 mph 1027mb 44f 70f
7:48pm 9 14 mph 1027mb 44f 70f
7:42pm 7 14 mph 1026.9mb 44f 71f
7:36pm 7 15 mph 1026.8mb 44f 71f
7:30pm 6 14 mph 1026.8mb 44f 71f
7:24pm 6 15 mph 1026.7mb 44f 71f
7:18pm 8 14 mph 1026.7mb 44f 71f
7:12pm 9 16 mph 1026.6mb 44f 71f
7:06pm 9 15 mph 1026.6mb 44f 71f
7:00pm 8 11 mph 1026.6mb 44f 71f
6:54pm 9 14 mph 1026.6mb 44f 71f
6:48pm 9 16 mph 1026.6mb 44f 71f
6:42pm 9 14 mph 1026.6mb 44f 71f
6:36pm 7 10 mph 1026.5mb 44f 71f
6:30pm 9 15 mph 1026.4mb 44f 72f
6:24pm 7 13 mph 1026.4mb 44f 72f
6:18pm 8 13 mph 1026.4mb 44f 72f
6:12pm 8 14 mph 1026.4mb 44f 72f
6:06pm 11 16 mph 1026.4mb 44f 73f
6:00pm 6 13 mph 1026.3mb 44f 73f
5:54pm 6 9 mph 1026.3mb 44f 73f
5:48pm 9 15 mph 1026.2mb 44f 73f
5:42pm 9 15 mph 1026.1mb 44f 74f
5:36pm 9 16 mph 1026.1mb 44f 74f
5:30pm 10 17 mph 1026.1mb 44f 74f
5:24pm 7 13 mph 1026.1mb 44f 74f
5:18pm 7 13 mph 1026mb 44f 74f
5:12pm 9 14 mph 1026mb 44f 75f
5:06pm 11 16 mph 1026mb 44f 75f
5:00pm 11 17 mph 1025.9mb 44f 75f
4:54pm 10 16 mph 1025.8mb 44f 75f
4:48pm 11 18 mph 1025.9mb 44f 75f
4:42pm 13 21 mph 1025.9mb 44f 75f
4:36pm 9 16 mph 1025.9mb 44f 76f
4:30pm 13 20 mph 1025.9mb 44f 76f
4:24pm 10 15 mph 1025.9mb 44f 75f
4:18pm 10 21 mph 1025.8mb 44f 76f
4:12pm 11 21 mph 1025.8mb 44f 76f
4:06pm 11 22 mph 1025.7mb 44f 76f
4:00pm 11 20 mph 1025.9mb 44f 76f
3:54pm 7 18 mph 1025.8mb 44f 76f
3:48pm 18 23 mph 1025.9mb 44f 75f
3:42pm 20 29 mph 1026mb 44f 75f
3:36pm 18 24 mph 1026mb 45f 75f
3:30pm 18 28 mph 1026mb 45f 75f
3:24pm 14 23 mph 1026mb 45f 76f
3:18pm 16 22 mph 1026mb 44f 75f
3:12pm 17 24 mph 1026mb 44f 75f
3:06pm 17 26 mph 1025.9mb 44f 75f
3:00pm 20 29 mph 1025.9mb 44f 75f
2:54pm 15 25 mph 1025.9mb 44f 75f
2:48pm 21 29 mph 1025.9mb 44f 75f
2:42pm 16 28 mph 1025.9mb 44f 75f
2:36pm 20 26 mph 1025.8mb 44f 75f
2:30pm 15 25 mph 1025.9mb 44f 76f
2:24pm 15 21 mph 1025.9mb 44f 76f
2:18pm 14 25 mph 1025.9mb 44f 75f
2:12pm 16 26 mph 1026mb 44f 75f
2:06pm 13 22 mph 1026mb 44f 76f
2:00pm 11 18 mph 1025.9mb 45f 75f
1:54pm 13 20 mph 1026mb 45f 74f
1:48pm 14 22 mph 1026mb 45f 75f
1:42pm 14 20 mph 1026.1mb 44f 74f
1:36pm 16 22 mph 1026.2mb 44f 74f
1:30pm 15 22 mph 1026.3mb 44f 74f
1:24pm 21 29 mph 1026.3mb 44f 74f
1:18pm 14 21 mph 1026.4mb 44f 73f
1:12pm 17 24 mph 1026.5mb 44f 73f
1:06pm 14 22 mph 1026.5mb 44f 73f
1:00pm 15 24 mph 1026.7mb 44f 73f
12:54pm 13 23 mph 1026.9mb 44f 73f
12:48pm 11 20 mph 1027mb 45f 73f
12:42pm 20 28 mph 1027.2mb 44f 73f
12:36pm 23 32 mph 1027.3mb 44f 72f
12:30pm 20 28 mph 1027.4mb 44f 72f
12:24pm 13 21 mph 1027.5mb 44f 72f
12:18pm 15 25 mph 1027.5mb 44f 71f
12:12pm 7 16 mph 1027.7mb 44f 72f
12:06pm 11 24 mph 1027.8mb 44f 71f
12:00pm 13 18 mph 1027.9mb 44f 71f
11:54am 10 16 mph 1027.9mb 44f 71f
11:48am 18 25 mph 1028.1mb 44f 69f
11:42am 16 24 mph 1028.3mb 44f 69f
11:36am 11 20 mph 1028.4mb 44f 70f
11:30am 15 21 mph 1028.5mb 44f 69f
11:24am 16 24 mph 1028.4mb 44f 69f
11:18am 15 23 mph 1028.6mb - -
11:12am 16 23 mph 1028.7mb 44f 69f
11:06am 18 24 mph 1028.6mb 44f 69f
11:00am 16 28 mph 1028.6mb 43f 69f
10:54am 14 21 mph 1028.6mb 43f 69f
10:48am 18 29 mph 1028.6mb 43f 69f
10:42am 18 25 mph 1028.7mb 43f 69f
10:36am 21 30 mph 1028.7mb 43f 69f
10:30am 13 21 mph 1028.6mb 44f 69f
10:24am 14 26 mph 1028.6mb 44f 69f
10:18am 16 25 mph 1028.7mb 44f 69f
10:12am 16 23 mph 1028.5mb 44f 69f
10:06am 14 22 mph 1028.5mb 44f 69f
10:00am 18 28 mph 1028.6mb 44f 68f
9:54am 14 26 mph 1028.6mb 44f 68f
9:48am 17 28 mph 1028.5mb 44f 68f
9:42am 14 22 mph 1028.6mb 44f 68f
9:36am 13 22 mph 1028.6mb 44f 68f
9:30am 10 15 mph 1028.6mb 44f 68f
9:24am 13 21 mph 1028.7mb 43f 67f
9:18am 14 21 mph 1028.7mb 43f -
9:12am 13 21 mph 1028.7mb 43f 67f
9:06am 9 20 mph 1028.6mb 43f 67f
9:00am 10 16 mph 1028.7mb 44f 67f
8:54am 10 16 mph 1028.7mb 44f 67f
8:48am 8 17 mph 1028.6mb 43f 67f
8:42am 6 20 mph 1028.6mb 43f 67f
8:36am 8 16 mph 1028.6mb 43f 67f
8:30am 7 13 mph 1028.5mb 44f 67f
8:24am 8 17 mph 1028.5mb 43f 66f
8:18am 8 14 mph 1028.5mb 43f 66f
8:12am 11 17 mph 1028.5mb 43f 66f
8:06am 11 18 mph 1028.4mb 43f 66f
8:00am 9 15 mph 1028.5mb 43f 66f
7:54am 10 15 mph 1028.6mb 43f 65f
7:48am 9 14 mph 1028.6mb 43f 65f
7:42am 10 14 mph 1028.6mb 43f 65f
7:36am 10 15 mph 1028.6mb 43f 65f
7:30am 10 13 mph 1028.6mb 43f 65f
7:24am 14 22 mph 1028.5mb 43f 65f
7:18am 8 14 mph 1028.5mb 43f 65f
7:12am 13 18 mph 1028.4mb 43f 65f
7:06am 10 17 mph 1028.3mb 43f 65f
7:00am 14 20 mph 1028.3mb 43f 65f
6:54am 13 20 mph 1028.2mb 43f 65f
6:48am 14 23 mph 1028.1mb 43f 65f
6:42am 9 15 mph 1028.1mb 43f 65f
6:36am 9 15 mph 1028.1mb 44f 65f
6:30am 8 14 mph 1028mb 43f 65f
6:24am 14 22 mph 1028mb 43f 65f
6:18am 9 21 mph 1028mb 43f -
6:12am 14 18 mph 1027.9mb 43f 65f
6:06am 11 16 mph 1027.8mb 43f 65f
6:00am 11 17 mph 1027.7mb 43f 64f
5:54am 11 16 mph 1027.6mb 43f 64f
5:48am 9 13 mph 1027.7mb 43f 64f
5:42am 9 14 mph 1027.7mb 43f 64f
5:36am 8 14 mph 1027.7mb 43f 64f
5:30am 9 14 mph 1027.6mb 43f 64f
5:24am 9 16 mph 1027.6mb 43f 63f
5:18am 8 13 mph 1027.7mb 43f 63f
5:12am 9 16 mph 1027.5mb 43f 63f
5:06am 7 10 mph 1027.7mb 43f 62f
5:00am 5 9 mph 1027.8mb 43f 60f
4:54am 5 6 mph 1027.8mb 43f 59f
4:48am 5 7 mph 1027.9mb 43f 58f
4:42am 6 7 mph 1027.9mb 43f 56f
4:36am 6 7 mph 1027.9mb 43f 55f
4:30am 5 6 mph 1027.9mb 43f 55f
4:24am 5 6 mph 1028mb 43f 55f
4:18am 5 6 mph 1027.9mb 43f 54f
4:12am 5 6 mph 1027.9mb 43f 56f
4:06am 3 5 mph 1027.9mb 43f 57f
4:00am 3 5 mph 1027.9mb 43f 58f
3:54am 5 6 mph 1027.9mb 43f 58f
3:48am 5 6 mph 1027.9mb 43f 58f
3:42am 5 7 mph 1027.9mb 43f 58f
3:36am 3 5 mph 1028mb 43f 57f
3:30am 3 5 mph 1028mb 43f 56f
3:24am 5 6 mph 1028mb 43f 56f
3:18am 5 6 mph - - -
3:12am 5 6 mph 1028mb 43f 56f
3:06am 5 6 mph 1028.1mb 43f 58f
3:00am 5 6 mph 1028.1mb 43f 58f
2:54am 5 7 mph 1028.1mb 43f 60f
2:48am 5 6 mph 1028.1mb 43f 60f
2:42am 5 6 mph 1028.2mb 43f 60f
2:36am 5 7 mph 1028.2mb 43f 62f
2:30am 6 9 mph 1028.2mb 43f 62f
2:24am 5 9 mph 1028.2mb 43f 64f
2:18am 7 13 mph 1028.3mb - -
2:12am 8 15 mph 1028.3mb 43f 64f
2:06am 8 11 mph 1028.4mb 43f 64f
2:00am 7 11 mph 1028.5mb 43f 64f
1:54am 9 15 mph 1028.6mb 43f 64f
1:48am 6 9 mph 1028.6mb 43f 63f
1:42am 6 10 mph 1028.6mb 43f 62f
1:36am 3 7 mph 1028.7mb 43f 62f
1:30am 5 7 mph 1028.7mb 43f 61f
1:24am 3 6 mph 1028.7mb 43f 60f
1:18am 6 7 mph 1028.6mb 43f 59f
1:12am 7 9 mph 1028.5mb 43f 59f
1:06am 7 8 mph 1028.5mb 43f 59f
1:00am 6 6 mph 1028.6mb 43f 59f
12:54am 3 6 mph 1028.6mb 43f 59f
12:48am 6 8 mph 1028.6mb 43f 59f
12:42am 6 8 mph 1028.5mb 43f 59f
12:36am 7 9 mph 1028.6mb 43f 60f
12:30am 7 8 mph 1028.7mb 43f 60f
12:24am 6 7 mph 1028.7mb 43f 60f
12:18am 6 7 mph 1028.7mb 42f 60f
12:12am 5 6 mph 1028.7mb 43f 60f
12:06am 5 6 mph 1028.7mb 42f 61f
12:00am 5 5 mph 1028.7mb 42f 61f
Tue 02/20 11:54pm 5 6 mph 1028.7mb 42f 62f
11:48pm 6 6 mph 1028.7mb 42f 62f
11:42pm 5 7 mph 1028.6mb 42f 64f
11:36pm 5 7 mph 1028.6mb 42f 64f
11:30pm 5 7 mph 1028.6mb 42f 64f
11:24pm 5 8 mph 1028.5mb 42f 65f
11:18pm 3 6 mph 1028.6mb 42f 65f
11:12pm 6 8 mph 1028.5mb 42f 65f
11:06pm 6 9 mph 1028.5mb 42f 65f
11:00pm 5 7 mph 1028.6mb 42f 65f
10:54pm 6 10 mph 1028.5mb 42f 65f
10:48pm 5 9 mph 1028.6mb 42f 66f
10:42pm 6 13 mph 1028.6mb 42f 66f
10:36pm 6 10 mph 1028.7mb 42f 66f
10:30pm 7 11 mph 1028.6mb 42f 66f
10:24pm 7 13 mph 1028.6mb 42f 66f
10:18pm 7 11 mph 1028.6mb 42f 66f
10:12pm 8 13 mph 1028.6mb 42f 66f
10:06pm 7 13 mph 1028.7mb 42f 65f
10:00pm 7 11 mph 1028.8mb 42f 66f
9:54pm 7 13 mph 1028.8mb 42f 65f
9:48pm 7 13 mph 1028.8mb 42f 65f
9:42pm 7 14 mph 1028.8mb 42f 65f
9:36pm 6 11 mph 1028.8mb 42f 65f
9:30pm 7 11 mph 1028.9mb 42f 65f
9:24pm 7 13 mph 1028.9mb 42f 65f
9:18pm 7 15 mph 1028.9mb 42f 65f
9:12pm 7 10 mph 1029mb 42f 64f
9:06pm 8 11 mph 1028.9mb 42f 64f
9:00pm 7 10 mph 1028.9mb 42f 64f
8:54pm 5 10 mph 1028.9mb 42f 63f
8:48pm 6 9 mph 1028.9mb 42f 63f
8:42pm 6 9 mph 1028.9mb 42f 63f
8:36pm 7 10 mph 1028.8mb 42f 63f
8:30pm 6 9 mph 1028.8mb 42f 63f
8:24pm 5 7 mph 1028.8mb 42f 63f
8:18pm 5 8 mph 1028.7mb 42f 62f
8:12pm 6 8 mph 1028.7mb 42f 63f
8:06pm 6 9 mph 1028.7mb 42f 63f
8:00pm 6 9 mph 1028.7mb 42f 63f
7:54pm 5 10 mph 1028.6mb 42f 63f
7:48pm 7 10 mph 1028.5mb 42f 63f
7:42pm 6 11 mph 1028.5mb 42f 63f
7:36pm 7 10 mph 1028.6mb 42f 64f
7:30pm 6 11 mph 1028.4mb 42f 64f
7:24pm 7 13 mph 1028.3mb 42f 64f
7:18pm 7 13 mph 1028.3mb 42f 64f
7:12pm 7 11 mph 1028.2mb 42f 64f
7:06pm 6 8 mph 1028.2mb 42f 64f
7:00pm 6 11 mph 1028.2mb 42f 63f
6:54pm 6 9 mph 1028.1mb 42f 63f
6:48pm 7 10 mph 1028mb 42f 64f
6:42pm 7 10 mph 1028mb 42f 64f
6:36pm 7 9 mph 1028mb 42f 66f
6:30pm 7 14 mph 1028mb 42f 67f
6:24pm 6 11 mph 1028mb 41f 67f
6:18pm 7 11 mph 1027.9mb 41f 67f
6:12pm 7 11 mph 1027.8mb 42f 67f
6:06pm 7 10 mph 1027.8mb 42f 67f
6:00pm 7 11 mph 1027.8mb 42f 67f
5:54pm 6 10 mph 1027.8mb 42f 67f
5:48pm 5 9 mph 1027.8mb 42f 67f
5:42pm 6 8 mph 1027.7mb 42f 67f
5:36pm 7 11 mph 1027.7mb 42f 67f
5:30pm 6 11 mph 1027.7mb 42f 67f
5:24pm 9 17 mph 1027.7mb 42f 67f
5:18pm 7 13 mph 1027.7mb 42f 67f
5:12pm 13 17 mph 1027.7mb 42f 68f
5:06pm 10 20 mph 1027.6mb 42f 68f
5:00pm 9 16 mph 1027.5mb 42f 69f
4:54pm 7 13 mph 1027.6mb 42f 69f
4:48pm 10 21 mph 1027.6mb 42f 69f
4:42pm 11 21 mph 1027.5mb 42f 69f
4:36pm 9 15 mph 1027.4mb 42f 70f
4:30pm 10 16 mph 1027.3mb 42f 70f
4:24pm 9 18 mph 1027.3mb 42f 71f
4:18pm 9 15 mph 1027.3mb 42f 71f
4:12pm 9 22 mph 1027.3mb 42f 71f
4:06pm 11 17 mph 1027.3mb 42f 71f
4:00pm 10 20 mph 1027.3mb 42f 72f
3:54pm 8 14 mph 1027.3mb 42f 72f
3:48pm 15 23 mph 1027.3mb 42f 72f
3:42pm 11 20 mph 1027.2mb 42f 72f
3:36pm 13 21 mph 1027.1mb 42f 73f
3:30pm 9 14 mph 1027.1mb 42f 73f
3:24pm 13 20 mph 1027.1mb 42f 73f
3:18pm 14 23 mph 1027.1mb 42f 73f
3:12pm 14 21 mph 1027.1mb 42f 73f
3:06pm 16 23 mph 1027.1mb 42f 73f
3:00pm 11 18 mph 1027.1mb 42f 73f
2:54pm 11 20 mph 1027mb 42f 74f
2:48pm 10 17 mph 1027.1mb 42f 73f
2:42pm 13 21 mph 1027.1mb 42f 73f
2:36pm 8 14 mph 1027.1mb 42f 73f
2:30pm 13 21 mph 1027.1mb 42f 73f
2:24pm 15 22 mph 1027.2mb 42f 72f
2:18pm 16 22 mph 1027.2mb 42f 72f
2:12pm 10 21 mph 1027.2mb 42f 73f
2:06pm 13 20 mph 1027.2mb 42f 73f
2:00pm 11 16 mph 1027.3mb 42f 72f
1:54pm 14 16 mph 1027.3mb 42f 72f
1:48pm 14 20 mph 1027.4mb 42f 72f
1:42pm 20 30 mph 1027.5mb 42f 71f
1:36pm 13 23 mph 1027.5mb 42f 72f
1:30pm 15 26 mph 1027.5mb 42f 71f
1:24pm 22 33 mph 1027.6mb 42f 71f
1:18pm 16 23 mph 1027.7mb 42f 71f
1:12pm 15 20 mph 1027.6mb 41f 71f
1:06pm 14 22 mph 1027.7mb 42f 71f
1:00pm 16 23 mph 1027.8mb 42f 70f
12:54pm 16 24 mph 1027.9mb 42f 70f
12:48pm 16 22 mph 1028.1mb 42f 70f
12:42pm 15 23 mph 1028.1mb 41f 69f
12:36pm 14 21 mph 1028.2mb 41f 70f
12:30pm 13 16 mph 1028.2mb 41f 69f
12:24pm 17 21 mph 1028.3mb 41f 69f
12:18pm 7 16 mph 1028.3mb 40f 69f
12:12pm 11 20 mph 1028.3mb 40f 68f
12:06pm 9 20 mph 1028.2mb 40f 68f
12:00pm 6 11 mph 1028.3mb 40f 68f
11:54am 14 22 mph 1028.6mb 41f 67f
11:48am 16 24 mph 1028.7mb 41f 67f
11:42am 14 21 mph 1028.8mb 41f 67f
11:36am 13 21 mph 1028.9mb 41f 67f
11:30am 10 16 mph 1029mb 41f 66f
11:24am 13 22 mph 1029.1mb 41f 66f
11:18am 11 17 mph 1029.2mb 41f 66f
11:12am 16 24 mph 1029.3mb 41f 65f
11:06am 15 22 mph 1029.3mb 41f 64f
11:00am 15 24 mph 1029.3mb 41f 64f
10:54am 11 18 mph 1029.4mb 40f 65f
10:48am 13 22 mph 1029.4mb 40f 65f
10:42am 13 22 mph 1029.4mb 40f 64f
10:36am 14 24 mph 1029.4mb 40f 64f
10:30am 13 20 mph 1029.5mb 40f 64f
10:24am 13 20 mph 1029.5mb 40f 64f
10:18am 13 18 mph 1029.5mb 40f 64f
10:12am 18 25 mph 1029.5mb 40f 63f
10:06am 13 20 mph 1029.5mb 40f 63f
10:00am 13 25 mph 1029.4mb 40f 63f
9:54am 15 22 mph 1029.4mb 40f 62f
9:48am 14 20 mph 1029.5mb 40f 62f
9:42am 14 23 mph 1029.5mb 40f 62f
9:36am 10 16 mph 1029.6mb 40f 62f
9:30am 13 21 mph 1029.7mb 40f 62f
9:24am 11 15 mph 1029.7mb 40f 62f
9:18am 10 17 mph 1029.8mb 40f 61f
9:12am 13 20 mph 1029.7mb 40f 61f
9:06am 14 18 mph 1029.6mb 40f 60f
9:00am 11 17 mph 1029.6mb 40f 60f
8:54am 15 22 mph 1029.7mb 40f 60f
8:48am 10 21 mph 1029.6mb 40f 60f
8:42am 13 22 mph 1029.7mb 40f 60f
8:36am 7 16 mph 1029.7mb 40f 60f
8:30am 13 26 mph 1029.7mb 40f 60f
8:24am 13 18 mph 1029.7mb 40f 60f
8:18am 15 22 mph 1029.6mb 40f 60f
8:12am 14 22 mph 1029.5mb 40f 60f
8:06am 13 20 mph 1029.5mb 40f 60f
8:00am 10 16 mph 1029.6mb 40f 60f
7:54am 13 18 mph 1029.5mb 40f 61f
7:48am 13 20 mph 1029.5mb 40f 61f
7:42am 15 24 mph 1029.4mb 40f 61f
7:36am 11 17 mph 1029.4mb 40f 61f
7:30am 13 17 mph 1029.3mb 40f 61f
7:24am 10 17 mph 1029.2mb 40f 61f
7:18am 11 17 mph - - -
7:12am 10 15 mph 1029.1mb 40f 61f
7:06am 10 16 mph 1029mb 40f 61f
7:00am 11 17 mph 1028.9mb 40f 61f
6:54am 14 18 mph 1028.9mb 40f 61f
6:48am 13 17 mph 1028.7mb 40f 61f
6:42am 13 18 mph 1028.5mb 40f 61f
6:36am 9 13 mph 1028.4mb 40f 60f
6:30am 10 16 mph 1028.4mb 40f 60f
6:24am 10 21 mph 1028.3mb 40f 60f
6:18am 13 24 mph 1028.2mb 40f -
6:12am 14 24 mph 1028.2mb 40f 61f
6:06am 13 22 mph 1028.1mb 40f 60f
6:00am 10 16 mph 1028mb 40f 60f